Time;durP1;ratioP1;P1;durP2;ratioP2;P2;SDS_P1;SDS_P2;PMS_P1;PMS_P2;Temp;Humidity;BMP_temperature;BMP_pressure;BME280_temperature;BME280_humidity;BME280_pressure;Samples;Min_cycle;Max_cycle;Signal;HPM_P1;HPM_P2
2021/06/12 00:00:12;;;;;;;9.38;4.40;;;18.10;99.90;;;19.90;77.02;100839.66;6217241;23;20421;-84
2021/06/12 00:02:38;;;;;;;5.70;3.97;;;18.20;99.90;;;20.00;76.38;100842.38;6192138;23;20453;-84
2021/06/12 00:05:09;;;;;;;5.97;4.10;;;18.30;99.90;;;20.02;76.57;100836.31;6191063;23;20056;-82
2021/06/12 00:07:35;;;;;;;5.50;4.05;;;18.30;99.90;;;20.00;76.72;100825.38;6190312;23;20382;-81
2021/06/12 00:10:13;;;;;;;5.00;4.22;;;18.30;99.90;;;20.00;76.58;100827.44;6191057;23;20359;-85
2021/06/12 00:12:41;;;;;;;6.93;4.10;;;18.40;99.90;;;20.00;76.46;100831.03;6215973;23;20449;-83
2021/06/12 00:15:12;;;;;;;6.97;4.13;;;18.30;99.90;;;19.95;76.47;100825.84;6216635;23;20489;-85
2021/06/12 00:17:39;;;;;;;5.28;3.72;;;18.30;99.90;;;19.99;76.35;100826.63;6190348;23;20013;-86
2021/06/12 00:20:10;;;;;;;6.13;4.20;;;18.30;99.90;;;19.98;76.53;100829.84;6190376;23;20024;-86
2021/06/12 00:22:36;;;;;;;6.15;3.85;;;18.30;99.90;;;19.97;76.72;100828.25;6190921;23;20016;-82
2021/06/12 00:25:04;;;;;;;4.97;4.07;;;18.20;99.90;;;19.93;76.44;100821.81;6191171;23;20040;-86
2021/06/12 00:27:30;;;;;;;5.57;3.72;;;18.30;99.90;;;19.87;76.63;100804.41;6190669;23;20012;-82
2021/06/12 00:29:55;;;;;;;5.65;3.88;;;18.20;99.90;;;19.86;76.68;100810.53;6192212;23;20012;-84
2021/06/12 00:32:21;;;;;;;6.35;3.92;;;18.20;99.90;;;19.80;76.97;100803.69;6191832;23;20451;-86
2021/06/12 00:34:47;;;;;;;6.35;4.13;;;18.10;99.90;;;19.79;76.70;100804.91;6192158;23;20008;-85
2021/06/12 00:37:13;;;;;;;7.30;3.97;;;18.10;99.90;;;19.70;77.33;100793.25;6216980;23;20056;-83
2021/06/12 00:39:40;;;;;;;7.40;4.20;;;18.10;99.90;;;19.68;77.48;100795.69;6216071;23;20001;-86
2021/06/12 00:42:07;;;;;;;6.10;4.00;;;18.00;99.90;;;19.65;77.44;100791.66;6191298;23;20592;-85
2021/06/12 00:44:33;;;;;;;5.70;3.70;;;18.00;99.90;;;19.70;77.46;100796.06;6215251;23;20008;-85
2021/06/12 00:47:00;;;;;;;5.00;3.80;;;18.00;99.90;;;19.71;77.62;100792.84;6215537;23;20015;-84
2021/06/12 00:49:26;;;;;;;7.88;3.92;;;18.00;99.90;;;19.72;77.39;100799.28;6191356;23;20405;-86
2021/06/12 00:51:52;;;;;;;5.78;4.15;;;18.10;99.90;;;19.77;77.34;100796.84;6197566;23;20009;-81
2021/06/12 00:54:18;;;;;;;5.75;3.90;;;18.10;99.90;;;19.73;77.25;100787.56;6242482;23;20015;-82
2021/06/12 00:56:44;;;;;;;10.70;4.50;;;18.10;99.90;;;19.73;77.56;100795.25;6216383;23;20025;-82
2021/06/12 00:59:10;;;;;;;6.70;4.78;;;18.00;99.90;;;19.64;78.03;100789.25;6216072;23;20028;-81
2021/06/12 01:01:36;;;;;;;7.53;4.03;;;17.90;99.90;;;19.64;77.79;100789.25;6213660;23;20019;-82
2021/06/12 01:04:02;;;;;;;5.70;4.00;;;17.90;99.90;;;19.54;77.98;100784.47;6215224;23;20013;-81
2021/06/12 01:06:28;;;;;;;6.10;4.00;;;17.90;99.90;;;19.48;78.18;100788.97;6216176;23;20008;-83
2021/06/12 01:08:54;;;;;;;5.75;4.10;;;17.70;99.90;;;19.43;78.58;100787.38;6212458;23;20470;-85
2021/06/12 01:11:20;;;;;;;5.57;3.88;;;17.70;99.90;;;19.34;78.74;100778.50;6198369;23;20008;-88
2021/06/12 01:14:22;;;;;;;5.63;3.95;;;17.60;99.90;;;19.30;79.11;100778.50;6191567;23;20024;-88
2021/06/12 01:17:07;;;;;;;4.63;3.50;;;17.50;99.90;;;19.24;79.47;100780.19;6189981;23;20005;-89
2021/06/12 01:20:18;;;;;;;6.07;3.95;;;17.50;99.90;;;19.28;80.10;100777.31;6216429;23;20508;-87
2021/06/12 01:22:47;;;;;;;5.82;4.07;;;17.50;99.90;;;19.39;79.82;100778.84;6192125;23;20012;-87
2021/06/12 01:26:15;;;;;;;4.70;3.55;;;17.50;99.90;;;19.50;79.68;100783.69;6190859;23;20000;-86
2021/06/12 01:28:50;;;;;;;6.90;4.07;;;17.60;99.90;;;19.62;79.11;100789.66;6191580;23;20008;-87
2021/06/12 01:31:21;;;;;;;7.53;5.10;;;17.70;99.90;;;19.74;78.69;100794.84;6191491;23;20091;-87
2021/06/12 01:33:51;;;;;;;7.05;4.43;;;17.90;99.90;;;19.82;78.61;100792.72;6217582;23;20315;-87
2021/06/12 01:36:17;;;;;;;5.60;4.05;;;18.00;99.90;;;19.94;78.25;100792.22;6216025;23;20004;-87
2021/06/12 01:38:50;;;;;;;7.32;4.10;;;18.10;99.90;;;20.00;78.05;100797.03;6190551;23;20399;-86
2021/06/12 01:41:22;;;;;;;6.95;4.22;;;18.20;99.90;;;20.09;77.88;100793.72;6216496;23;20008;-85
2021/06/12 01:43:52;;;;;;;9.23;4.82;;;18.20;99.90;;;20.13;77.78;100794.47;6217607;23;20070;-85
2021/06/12 01:46:19;;;;;;;7.68;4.85;;;18.30;99.90;;;20.14;77.39;100798.94;6190260;23;20019;-85
2021/06/12 01:48:48;;;;;;;8.43;4.65;;;18.40;99.90;;;20.28;77.10;100804.50;6217295;23;20012;-85
2021/06/12 01:51:17;;;;;;;8.40;5.30;;;18.50;99.90;;;20.41;76.97;100807.59;6189576;23;20095;-88
2021/06/12 01:53:46;;;;;;;9.35;5.90;;;18.50;99.90;;;20.38;76.72;100809.25;6216168;23;20009;-85
2021/06/12 01:56:13;;;;;;;10.73;5.50;;;18.60;99.90;;;20.45;76.70;100817.69;6190228;23;20335;-85
2021/06/12 01:58:44;;;;;;;8.15;5.20;;;18.60;99.90;;;20.49;76.81;100821.28;6189598;23;20009;-86
2021/06/12 02:01:19;;;;;;;9.93;5.60;;;18.70;99.90;;;20.49;77.26;100817.63;6190506;23;20008;-89
2021/06/12 02:03:49;;;;;;;13.05;6.38;;;18.70;99.90;;;20.44;77.28;100815.28;6216788;23;20004;-87
2021/06/12 02:06:19;;;;;;;10.32;6.03;;;18.70;99.90;;;20.46;77.24;100816.47;6189335;23;20395;-86
2021/06/12 02:08:47;;;;;;;7.55;5.68;;;18.70;99.90;;;20.51;77.17;100823.72;6189549;23;20012;-86
2021/06/12 02:11:20;;;;;;;10.50;5.95;;;18.80;99.90;;;20.58;77.03;100829.28;6188699;23;20031;-87
2021/06/12 02:13:49;;;;;;;9.70;5.72;;;18.70;99.90;;;20.54;77.10;100825.72;6189251;23;20005;-84
2021/06/12 02:16:20;;;;;;;10.68;6.43;;;18.70;99.90;;;20.57;77.23;100824.88;6188973;23;20059;-83
2021/06/12 02:18:48;;;;;;;11.15;6.93;;;18.70;99.90;;;20.52;77.50;100827.38;6213607;23;20012;-87
2021/06/12 02:21:19;;;;;;;8.80;5.78;;;18.70;99.90;;;20.51;77.61;100823.72;6189345;23;20083;-85
2021/06/12 02:23:49;;;;;;;8.98;5.85;;;18.70;99.90;;;20.46;77.93;100816.47;6189515;23;20016;-85
2021/06/12 02:26:18;;;;;;;9.60;6.00;;;18.70;99.90;;;20.42;78.35;100834.75;6215709;23;20009;-87
2021/06/12 02:28:50;;;;;;;13.70;7.20;;;18.60;99.90;;;20.32;78.64;100824.31;6213925;23;20381;-88
2021/06/12 02:31:44;;;;;;;11.48;7.13;;;18.60;99.90;;;20.33;78.60;100823.88;6215132;23;20004;-86
2021/06/12 02:34:10;;;;;;;9.55;6.30;;;18.50;99.90;;;20.32;78.75;100818.66;6188640;23;20008;-85
2021/06/12 02:36:37;;;;;;;11.63;6.38;;;18.60;99.90;;;20.31;79.12;100817.84;6213336;23;20008;-88
2021/06/12 02:39:07;;;;;;;12.25;7.68;;;18.50;99.90;;;20.22;79.48;100814.66;6214997;23;20054;-84
2021/06/12 02:41:35;;;;;;;10.13;6.68;;;18.50;99.90;;;20.29;79.20;100822.34;6188257;23;20058;-83
2021/06/12 02:44:01;;;;;;;11.52;6.35;;;18.50;99.90;;;20.24;79.83;100819.91;6188344;23;20100;-86
2021/06/12 02:46:34;;;;;;;10.05;6.38;;;18.50;99.90;;;20.21;79.84;100813.03;6187762;23;20012;-86
2021/06/12 02:49:08;;;;;;;11.38;6.60;;;18.40;99.90;;;20.19;79.70;100800.50;6188200;23;20374;-86
2021/06/12 02:51:42;;;;;;;9.18;5.68;;;18.40;99.90;;;20.20;79.87;100810.59;6213335;23;20016;-86
2021/06/12 02:54:08;;;;;;;7.82;5.63;;;18.40;99.90;;;20.18;80.16;100815.91;6213339;23;20011;-86
2021/06/12 02:56:37;;;;;;;9.35;5.80;;;18.40;99.90;;;20.12;80.40;100804.22;6188376;23;20005;-84
2021/06/12 02:59:11;;;;;;;11.40;6.28;;;18.30;99.90;;;20.13;80.09;100816.38;6188584;23;20046;-88
2021/06/12 03:01:41;;;;;;;9.00;6.18;;;18.30;99.90;;;20.11;80.23;100827.31;6189393;23;20074;-88
2021/06/12 03:04:15;;;;;;;9.45;6.82;;;18.30;99.90;;;20.03;80.68;100820.09;6191798;23;20086;-87
2021/06/12 03:06:45;;;;;;;10.80;6.53;;;18.30;99.90;;;20.03;80.61;100820.91;6193764;23;20008;-89
2021/06/12 03:09:25;;;;;;;10.93;6.00;;;18.30;99.90;;;20.07;80.64;100823.72;6209059;23;20004;-83
2021/06/12 03:11:55;;;;;;;11.80;6.15;;;18.30;99.90;;;20.07;80.32;100820.88;6196490;23;20016;-88
2021/06/12 03:14:25;;;;;;;7.60;5.22;;;18.30;99.90;;;20.03;80.41;100811.59;6189945;23;20009;-88
2021/06/12 03:16:52;;;;;;;9.65;5.95;;;18.30;99.90;;;19.99;80.26;100814.47;6215598;23;20001;-86
2021/06/12 03:19:20;;;;;;;7.43;5.07;;;18.20;99.90;;;20.03;79.67;100818.09;6215205;23;20019;-88
2021/06/12 03:21:50;;;;;;;9.95;5.05;;;18.20;99.90;;;20.05;79.74;100826.97;6213758;23;20012;-83
2021/06/12 03:24:16;;;;;;;6.25;4.95;;;18.30;99.90;;;19.98;79.66;100810.00;6189417;23;20043;-87
2021/06/12 03:26:43;;;;;;;8.90;5.15;;;18.20;99.90;;;20.02;79.32;100813.63;6190816;23;20467;-90
2021/06/12 03:29:11;;;;;;;7.22;4.72;;;18.20;99.90;;;19.92;79.65;100820.19;6219938;23;20076;-88
2021/06/12 03:31:38;;;;;;;8.95;5.22;;;18.20;99.90;;;19.86;79.78;100816.19;6194030;23;20008;-85
2021/06/12 03:34:05;;;;;;;6.47;5.00;;;18.10;99.90;;;19.85;79.51;100812.56;6216189;23;20004;-86
2021/06/12 03:36:32;;;;;;;5.35;4.47;;;18.10;99.90;;;19.82;79.67;100804.88;6217366;23;20449;-84
2021/06/12 03:38:58;;;;;;;5.72;4.70;;;18.00;99.90;;;19.77;80.41;100804.53;6191151;23;20088;-85
2021/06/12 03:41:25;;;;;;;4.75;4.25;;;18.10;99.90;;;19.68;80.61;100802.16;6215676;23;20422;-87
2021/06/12 03:43:51;;;;;;;7.00;4.63;;;18.00;99.90;;;19.65;80.78;100799.38;6190715;23;20012;-85
2021/06/12 03:46:20;;;;;;;8.35;4.78;;;17.90;99.90;;;19.68;80.76;100793.66;6217799;23;20015;-86
2021/06/12 03:48:50;;;;;;;7.18;5.10;;;17.90;99.90;;;19.66;80.74;100798.13;6190686;23;20040;-87
2021/06/12 03:51:20;;;;;;;7.13;4.95;;;18.00;99.90;;;19.73;80.57;100801.72;6215729;23;20015;-86
2021/06/12 03:53:48;;;;;;;10.48;5.97;;;18.00;99.90;;;19.70;80.87;100799.72;6217334;23;20466;-86
2021/06/12 03:56:29;;;;;;;6.93;5.25;;;17.90;99.90;;;19.79;80.57;100807.75;6191569;23;20448;-86
2021/06/12 03:58:56;;;;;;;6.47;4.20;;;18.00;99.90;;;19.76;80.74;100812.22;6191084;23;20009;-88
2021/06/12 04:01:22;;;;;;;8.20;5.40;;;18.00;99.90;;;19.72;80.83;100807.78;6191288;23;20051;-84
2021/06/12 04:03:48;;;;;;;6.60;4.55;;;18.00;99.90;;;19.76;81.21;100822.75;6216302;23;20442;-89
2021/06/12 04:06:14;;;;;;;7.93;4.80;;;17.90;99.90;;;19.73;81.39;100815.88;6191562;23;20035;-84
2021/06/12 04:08:41;;;;;;;7.60;4.57;;;17.90;99.90;;;19.74;81.32;100831.69;6216877;23;20443;-84
2021/06/12 04:11:09;;;;;;;8.98;4.18;;;17.90;99.90;;;19.77;81.33;100830.03;6217154;23;20009;-87
2021/06/12 04:13:35;;;;;;;9.77;5.40;;;18.00;99.90;;;19.70;81.55;100827.25;6190937;23;20005;-88
2021/06/12 04:16:01;;;;;;;9.43;5.28;;;17.90;99.90;;;19.67;81.83;100820.41;6191117;23;20055;-88
2021/06/12 04:18:27;;;;;;;7.40;4.68;;;18.00;99.90;;;19.71;81.83;100824.00;6190627;23;20083;-88
2021/06/12 04:20:52;;;;;;;8.48;5.10;;;17.90;99.90;;;19.73;81.99;100824.41;6216085;23;20438;-84
2021/06/12 04:23:18;;;;;;;9.50;5.97;;;18.00;99.90;;;19.68;82.38;100818.38;6190798;23;20000;-85
2021/06/12 04:25:44;;;;;;;10.63;5.88;;;18.00;99.90;;;19.79;82.16;100817.06;6214989;23;20008;-85
2021/06/12 04:28:10;;;;;;;12.23;6.82;;;18.10;99.90;;;19.82;81.98;100823.91;6216247;23;20019;-86
2021/06/12 04:30:37;;;;;;;11.77;6.65;;;18.10;99.90;;;19.84;82.14;100821.50;6214636;23;20008;-85
2021/06/12 04:33:04;;;;;;;12.77;7.20;;;18.20;99.90;;;19.78;82.15;100809.75;6189924;23;20394;-83
2021/06/12 04:35:32;;;;;;;10.80;7.47;;;18.20;99.90;;;19.80;82.15;100803.69;6189895;23;20008;-84
2021/06/12 04:37:59;;;;;;;12.13;6.78;;;18.20;99.90;;;19.80;82.11;100810.19;6217113;23;20001;-86
2021/06/12 04:40:29;;;;;;;11.05;6.32;;;18.20;99.90;;;19.88;81.89;100810.91;6189782;23;20001;-87
2021/06/12 04:42:56;;;;;;;11.88;5.93;;;18.30;99.90;;;19.89;81.41;100815.34;6216972;23;20031;-86
2021/06/12 04:45:23;;;;;;;10.30;6.43;;;18.20;99.90;;;19.73;82.53;100807.38;6190194;23;20019;-88
2021/06/12 04:47:50;;;;;;;11.63;7.38;;;18.20;99.90;;;19.84;81.78;100804.47;6189401;23;20001;-84
2021/06/12 04:50:18;;;;;;;7.32;5.70;;;18.30;99.90;;;19.65;82.51;100790.88;6190355;23;20036;-88
2021/06/12 04:52:44;;;;;;;11.23;6.38;;;18.20;99.90;;;19.80;81.64;100790.34;6190118;23;20398;-83
2021/06/12 04:55:12;;;;;;;11.40;6.50;;;18.30;99.90;;;19.78;80.83;100786.28;6218664;23;20055;-87
2021/06/12 04:57:41;;;;;;;8.73;5.60;;;18.30;99.90;;;20.01;80.38;100786.50;6190241;23;20012;-89
2021/06/12 05:00:11;;;;;;;8.98;5.55;;;18.30;99.90;;;20.05;79.71;100792.94;6215839;23;20027;-88
2021/06/12 05:02:39;;;;;;;10.93;5.55;;;18.30;99.90;;;20.11;79.46;100796.13;6191340;23;20074;-85
2021/06/12 05:05:08;;;;;;;8.88;5.13;;;18.50;99.90;;;20.30;78.76;100795.56;6217362;23;20071;-87
2021/06/12 05:07:35;;;;;;;8.45;5.28;;;18.60;99.90;;;20.51;77.71;100806.69;6218543;23;20522;-89
2021/06/12 05:10:07;;;;;;;7.72;4.68;;;18.70;99.90;;;20.77;76.64;100806.00;6217383;23;20035;-87
2021/06/12 05:12:33;;;;;;;9.93;4.38;;;18.80;99.90;;;21.00;75.23;100803.25;6200827;23;20013;-86
2021/06/12 05:15:01;;;;;;;11.65;5.07;;;19.10;99.90;;;21.23;74.31;100813.91;6206086;23;20004;-87
2021/06/12 05:17:30;;;;;;;8.27;4.15;;;19.30;99.90;;;21.34;73.58;100810.94;6191953;23;20043;-89
2021/06/12 05:19:57;;;;;;;6.57;3.75;;;19.30;99.90;;;21.18;73.46;100816.44;6190959;23;20005;-88
2021/06/12 05:22:27;;;;;;;9.25;4.18;;;19.40;99.90;;;21.27;73.65;100819.56;6189821;23;20035;-88
2021/06/12 05:24:56;;;;;;;8.90;4.28;;;19.40;99.90;;;21.30;73.42;100816.66;6190047;23;20509;-89
2021/06/12 05:27:24;;;;;;;7.15;4.75;;;19.50;99.90;;;21.73;71.78;100824.56;6216856;23;20008;-87
2021/06/12 05:29:51;;;;;;;8.57;4.90;;;19.70;99.90;;;21.65;71.35;100817.38;6190445;23;20013;-82
2021/06/12 05:32:17;;;;;;;9.65;5.20;;;19.90;99.90;;;21.92;70.39;100813.31;6215497;23;20016;-89
2021/06/12 05:34:43;;;;;;;12.60;4.85;;;20.00;99.90;;;22.04;69.17;100821.22;6189752;23;20035;-88
2021/06/12 05:37:11;;;;;;;8.38;4.22;;;20.20;99.90;;;22.04;69.28;100809.84;6189427;23;20004;-87
2021/06/12 05:39:37;;;;;;;12.85;5.55;;;20.10;99.90;;;21.97;69.97;100809.97;6190291;23;20388;-88
2021/06/12 05:42:04;;;;;;;8.60;4.97;;;20.10;99.90;;;21.85;70.04;100810.53;6220203;23;20012;-88
2021/06/12 05:44:30;;;;;;;10.32;4.82;;;20.10;99.90;;;21.80;70.53;100802.50;6217440;23;20016;-88
2021/06/12 05:46:56;;;;;;;9.52;4.95;;;20.10;99.90;;;22.18;70.10;100805.16;6191431;23;20300;-89
2021/06/12 05:49:22;;;;;;;7.68;4.70;;;20.20;99.90;;;22.00;70.14;100800.56;6189559;23;20004;-89
2021/06/12 05:51:48;;;;;;;9.38;4.68;;;20.40;99.90;;;22.05;70.00;100802.13;6190503;23;20005;-89
2021/06/12 05:54:15;;;;;;;8.32;4.57;;;20.40;99.90;;;22.31;69.35;100815.47;6215831;23;20043;-89
2021/06/12 05:56:41;;;;;;;9.82;4.90;;;20.40;99.90;;;22.07;69.45;100822.38;6192697;23;20005;-88
2021/06/12 05:59:07;;;;;;;6.68;4.32;;;20.40;99.90;;;22.33;69.01;100829.25;6221416;23;20010;-83
2021/06/12 06:01:33;;;;;;;7.38;4.72;;;20.40;99.90;;;22.28;68.51;100826.91;6219016;23;20009;-86
2021/06/12 06:04:00;;;;;;;8.98;5.07;;;20.40;99.90;;;22.03;69.28;100824.47;6190531;23;20158;-86
2021/06/12 06:06:26;;;;;;;10.13;5.18;;;20.40;99.90;;;22.12;69.33;100819.06;6189387;23;20324;-87
2021/06/12 06:08:52;;;;;;;9.48;4.90;;;20.40;99.90;;;22.34;69.58;100830.88;6188911;23;20016;-87
2021/06/12 06:11:18;;;;;;;9.65;5.60;;;20.60;99.90;;;22.95;67.16;100834.19;6189188;23;20378;-88
2021/06/12 06:13:46;;;;;;;10.25;5.07;;;20.90;99.90;;;23.19;66.10;100823.47;6189315;23;20350;-87
2021/06/12 06:16:12;;;;;;;6.35;4.40;;;21.30;99.90;;;22.92;66.70;100824.47;6215131;23;20059;-87
2021/06/12 06:18:40;;;;;;;7.35;4.60;;;21.30;99.90;;;23.43;64.92;100825.81;6215472;23;20387;-86
2021/06/12 06:21:08;;;;;;;9.02;4.82;;;21.40;99.90;;;23.40;65.17;100828.75;6215211;23;20004;-86
2021/06/12 06:23:34;;;;;;;7.63;4.50;;;21.50;99.90;;;23.75;64.21;100833.63;6216101;23;20008;-85
2021/06/12 06:26:01;;;;;;;9.50;4.78;;;21.80;99.90;;;23.58;64.02;100831.97;6190617;23;20469;-87
2021/06/12 06:28:27;;;;;;;8.48;5.05;;;21.80;99.90;;;23.67;64.04;100832.19;6191892;23;20393;-88
2021/06/12 06:30:54;;;;;;;6.20;4.28;;;21.90;99.90;;;24.41;62.26;100826.66;6192403;23;20244;-88
2021/06/12 06:33:22;;;;;;;8.95;5.60;;;22.30;99.90;;;24.14;62.29;100829.84;6217060;23;20432;-85
2021/06/12 06:35:49;;;;;;;8.23;4.88;;;22.30;99.90;;;23.79;62.88;100830.69;6219448;23;20001;-86
2021/06/12 06:38:15;;;;;;;9.30;5.68;;;22.00;99.90;;;23.54;64.25;100829.22;6205437;23;20027;-87
2021/06/12 06:40:42;;;;;;;10.40;5.90;;;21.80;99.90;;;23.57;63.37;100834.03;6190080;23;20004;-85
2021/06/12 06:43:11;;;;;;;11.10;5.35;;;21.80;99.90;;;23.63;64.31;100829.41;6188710;23;20013;-83
2021/06/12 06:45:40;;;;;;;8.32;5.07;;;21.80;99.90;;;23.89;63.67;100835.34;6214582;23;20129;-86
2021/06/12 06:48:07;;;;;;;12.38;5.70;;;21.90;99.90;;;23.96;63.89;100827.38;6215078;23;20407;-86
2021/06/12 06:50:33;;;;;;;13.38;6.25;;;22.00;99.90;;;23.85;63.77;100823.19;6215446;23;20008;-89
2021/06/12 06:52:59;;;;;;;10.48;5.57;;;22.00;99.90;;;24.06;63.54;100834.88;6212499;23;20014;-79
2021/06/12 06:55:27;;;;;;;9.93;5.10;;;22.20;99.90;;;24.64;62.27;100835.81;6214450;23;20035;-83
2021/06/12 06:57:54;;;;;;;12.02;6.45;;;22.50;99.90;;;24.48;61.76;100838.69;6213713;23;20012;-86
2021/06/12 07:00:23;;;;;;;8.13;4.82;;;22.70;99.90;;;24.75;61.51;100840.44;6213796;23;20035;-86
2021/06/12 07:02:50;;;;;;;10.27;6.47;;;22.80;99.90;;;24.78;60.35;100836.66;6213612;23;20011;-88
2021/06/12 07:05:16;;;;;;;8.15;6.03;;;22.80;99.90;;;24.65;61.65;100831.72;6215756;23;20011;-87
2021/06/12 07:07:42;;;;;;;11.27;6.25;;;22.70;99.90;;;24.42;62.67;100834.78;6214642;23;20088;-86
2021/06/12 07:10:09;;;;;;;10.00;7.00;;;22.50;99.90;;;23.86;63.73;100837.00;6189885;23;20056;-88
2021/06/12 07:12:36;;;;;;;8.48;5.90;;;22.20;99.90;;;24.21;63.43;100840.25;6191696;23;20457;-83
2021/06/12 07:15:04;;;;;;;9.60;6.95;;;22.20;99.90;;;23.99;64.07;100834.25;6216761;23;20347;-86
2021/06/12 07:17:30;;;;;;;14.27;7.57;;;22.00;99.90;;;23.73;65.60;100841.03;6198808;23;19993;-89
2021/06/12 07:19:57;;;;;;;12.10;6.78;;;21.80;99.90;;;23.32;66.59;100842.31;6204617;23;20023;-86
2021/06/12 07:22:23;;;;;;;10.30;5.82;;;21.50;99.90;;;23.20;67.42;100837.31;6188114;23;20016;-84
2021/06/12 07:24:49;;;;;;;10.63;7.05;;;21.30;99.90;;;22.94;67.54;100835.41;6188824;23;20045;-83
2021/06/12 07:27:15;;;;;;;11.90;8.70;;;21.10;99.90;;;22.63;68.77;100843.31;6188469;23;20016;-86
2021/06/12 07:29:41;;;;;;;16.27;10.70;;;20.90;99.90;;;22.41;69.23;100848.59;6189263;23;20339;-87
2021/06/12 07:32:07;;;;;;;13.80;10.93;;;20.70;99.90;;;22.47;69.00;100851.78;6215306;23;20008;-87
2021/06/12 07:34:33;;;;;;;20.92;15.85;;;20.60;99.90;;;22.17;69.80;100847.00;6215448;23;20454;-86
2021/06/12 07:36:59;;;;;;;19.05;16.13;;;20.40;99.90;;;21.88;71.21;100851.53;6215443;23;20030;-86
2021/06/12 07:39:29;;;;;;;24.20;20.27;;;20.30;99.90;;;21.77;71.79;100856.59;6213694;23;20004;-83
2021/06/12 07:41:55;;;;;;;26.48;22.00;;;20.10;99.90;;;21.70;71.81;100859.53;6215805;23;20005;-83
2021/06/12 07:44:21;;;;;;;34.22;24.65;;;19.90;99.90;;;21.66;72.25;100864.47;6215127;23;20071;-82
2021/06/12 07:46:49;;;;;;;32.67;25.55;;;19.90;99.90;;;21.68;72.51;100864.81;6187413;23;20023;-82
2021/06/12 07:49:15;;;;;;;35.33;26.92;;;19.90;99.90;;;21.63;72.00;100863.28;6187948;23;20009;-85
2021/06/12 07:51:44;;;;;;;33.63;25.85;;;19.90;99.90;;;21.63;72.40;100865.31;6212700;23;20012;-84
2021/06/12 07:54:09;;;;;;;40.42;25.98;;;19.90;99.90;;;21.74;71.57;100854.56;6213464;23;20009;-83
2021/06/12 07:56:36;;;;;;;32.03;26.48;;;20.00;99.90;;;21.91;71.41;100851.50;6188660;23;20427;-84
2021/06/12 07:59:03;;;;;;;28.20;23.17;;;20.10;99.90;;;22.23;70.81;100845.28;6187570;23;20008;-83
2021/06/12 08:01:29;;;;;;;33.35;23.33;;;20.40;99.90;;;22.97;68.43;100845.91;6188295;23;20091;-87
2021/06/12 08:03:55;;;;;;;28.08;23.33;;;20.90;99.90;;;23.01;65.83;100852.34;6189003;23;20075;-85
2021/06/12 08:06:21;;;;;;;25.17;21.75;;;21.10;99.90;;;22.95;66.83;100849.22;6216357;23;20268;-85
2021/06/12 08:08:47;;;;;;;22.92;19.38;;;21.00;99.90;;;22.38;67.49;100862.91;6189144;23;20074;-86
2021/06/12 08:11:13;;;;;;;27.17;19.13;;;20.80;99.90;;;22.30;69.09;100869.94;6214416;23;20008;-82
2021/06/12 08:13:39;;;;;;;25.42;21.92;;;20.70;99.90;;;21.90;69.52;100866.13;6215600;23;20001;-84
2021/06/12 08:16:06;;;;;;;27.15;23.00;;;20.30;99.90;;;21.81;70.33;100869.50;6189873;23;20000;-81
2021/06/12 08:18:33;;;;;;;27.25;21.73;;;20.20;99.90;;;21.89;70.69;100870.22;6190814;23;20004;-84
2021/06/12 08:21:00;;;;;;;29.92;23.23;;;20.00;99.90;;;21.78;71.33;100886.59;6191727;23;20019;-83
2021/06/12 08:23:27;;;;;;;32.45;23.60;;;19.90;99.90;;;21.71;71.74;100878.19;6216933;23;20281;-86
2021/06/12 08:25:52;;;;;;;29.02;23.35;;;19.90;99.90;;;21.47;72.65;100878.13;6220070;23;20009;-87
2021/06/12 08:28:19;;;;;;;29.63;22.40;;;19.80;99.90;;;21.47;73.28;100885.84;6225259;23;20098;-88
2021/06/12 08:30:45;;;;;;;30.10;24.00;;;19.70;99.90;;;21.39;72.77;100879.44;6193323;23;20008;-87
2021/06/12 08:33:12;;;;;;;27.92;20.95;;;19.70;99.90;;;21.38;73.23;100877.81;6217674;23;20430;-87
2021/06/12 08:35:39;;;;;;;25.88;21.40;;;19.70;99.90;;;21.31;73.48;100872.25;6216497;23;20207;-86
2021/06/12 08:38:08;;;;;;;26.35;21.25;;;19.60;99.90;;;21.43;72.84;100883.06;6217758;23;20001;-85
2021/06/12 08:40:36;;;;;;;27.05;20.90;;;19.60;99.90;;;21.29;73.31;100879.56;6217911;23;20039;-86
2021/06/12 08:43:05;;;;;;;32.47;22.48;;;19.60;99.90;;;21.43;72.99;100873.72;6217485;23;20037;-85
2021/06/12 08:45:32;;;;;;;26.27;20.98;;;19.60;99.90;;;21.37;73.14;100881.91;6215522;23;20012;-84
2021/06/12 08:48:01;;;;;;;26.30;21.17;;;19.60;99.90;;;21.55;73.60;100885.31;6190217;23;20004;-85
2021/06/12 08:50:30;;;;;;;31.13;24.67;;;19.70;99.90;;;21.73;72.98;100892.78;6189646;23;20008;-83
2021/06/12 08:52:58;;;;;;;34.95;29.02;;;19.90;99.90;;;21.69;72.29;100894.88;6190009;23;20020;-83
2021/06/12 08:55:24;;;;;;;38.20;30.27;;;19.90;99.90;;;21.83;71.43;100888.97;6191194;23;20108;-83
2021/06/12 08:57:51;;;;;;;39.25;29.55;;;20.10;99.90;;;22.10;70.34;100886.13;6214720;23;20056;-85
2021/06/12 09:00:18;;;;;;;33.30;27.85;;;20.20;99.90;;;22.30;70.43;100884.19;6214538;23;20009;-87
2021/06/12 09:03:03;;;;;;;29.52;24.90;;;20.40;99.90;;;22.51;67.82;100892.34;6216286;23;20011;-84
2021/06/12 09:06:00;;;;;;;29.38;24.33;;;20.60;99.90;;;22.59;67.78;100886.09;6216990;23;20051;-88
2021/06/12 09:08:32;;;;;;;27.15;23.08;;;20.80;99.90;;;23.23;66.16;100884.84;6189556;23;20346;-81
2021/06/12 09:11:12;;;;;;;25.08;20.23;;;21.40;99.90;;;23.95;62.15;100891.38;6190708;23;20095;-86
2021/06/12 09:13:57;;;;;;;23.33;19.77;;;21.90;99.90;;;24.23;61.92;100891.97;6218023;23;20008;-87
2021/06/12 09:16:40;;;;;;;21.50;18.42;;;22.40;99.90;;;24.41;60.57;100910.25;6215838;23;20009;-86
2021/06/12 09:19:22;;;;;;;20.90;18.70;;;22.50;99.90;;;24.12;61.60;100906.50;6191383;23;20000;-85
2021/06/12 09:21:56;;;;;;;20.15;16.98;;;22.40;99.90;;;24.01;62.69;100914.50;6200195;23;20019;-90
2021/06/12 09:24:41;;;;;;;21.90;18.20;;;22.20;99.90;;;24.02;62.07;100911.19;6232587;23;20135;-89
2021/06/12 09:27:17;;;;;;;20.40;17.83;;;22.20;99.90;;;24.35;60.60;100914.09;6215354;23;20004;-88
2021/06/12 09:29:46;;;;;;;20.10;17.88;;;22.40;99.90;;;24.57;59.06;100915.16;6189276;23;20008;-88
2021/06/12 09:32:19;;;;;;;16.10;14.40;;;22.60;99.90;;;25.16;59.20;100917.66;6189890;23;20032;-85
2021/06/12 09:34:50;;;;;;;23.23;20.58;;;22.90;99.90;;;24.94;57.18;100916.66;6216631;23;20000;-87
2021/06/12 09:37:28;;;;;;;23.10;18.25;;;23.00;99.90;;;24.77;57.89;100917.91;6214502;23;20032;-86
2021/06/12 09:40:14;;;;;;;23.23;17.80;;;23.00;99.90;;;24.70;58.41;100932.34;6190141;23;20319;-87
2021/06/12 09:42:48;;;;;;;17.17;15.13;;;22.80;99.90;;;24.43;58.87;100912.69;6191627;23;20013;-87
2021/06/12 09:45:31;;;;;;;26.52;16.55;;;22.60;99.90;;;24.20;59.38;100924.28;6189775;23;20016;-86
2021/06/12 09:48:17;;;;;;;17.77;15.38;;;22.40;99.90;;;23.93;60.05;100924.47;6214595;23;20005;-87
2021/06/12 09:50:47;;;;;;;17.45;14.85;;;22.20;99.90;;;24.07;60.26;100909.88;6188469;23;20074;-84
2021/06/12 09:53:20;;;;;;;18.30;16.17;;;22.20;99.90;;;23.83;60.86;100917.75;6187780;23;20356;-86
2021/06/12 09:55:47;;;;;;;18.52;16.60;;;22.20;99.90;;;24.10;60.32;100923.25;6213657;23;20011;-85
2021/06/12 09:58:15;;;;;;;18.80;16.08;;;22.20;99.90;;;24.21;59.54;100925.88;6188408;23;20065;-88
2021/06/12 10:00:48;;;;;;;16.05;14.45;;;22.30;99.90;;;24.62;59.40;100924.00;6189063;23;20016;-86
2021/06/12 10:03:32;;;;;;;15.65;13.63;;;22.50;99.90;;;24.93;56.89;100918.69;6214116;23;20449;-86
2021/06/12 10:06:24;;;;;;;13.63;12.23;;;22.80;99.90;;;25.47;55.46;100924.47;6189518;23;20005;-88
2021/06/12 10:08:53;;;;;;;19.10;14.95;;;23.20;99.90;;;25.40;55.15;100921.81;6189637;23;20010;-86
2021/06/12 10:11:25;;;;;;;16.05;14.35;;;23.50;99.90;;;26.11;54.33;100928.25;6188686;23;20035;-88
2021/06/12 10:13:52;;;;;;;20.98;14.13;;;23.80;99.90;;;25.99;54.12;100926.19;6214247;23;20083;-88
2021/06/12 10:16:20;;;;;;;17.05;13.30;;;23.90;99.90;;;26.13;53.56;100928.59;6188879;23;20004;-85